sensor_id;sensor_type;location;lat;lon;timestamp;P1;durP1;ratioP1;P2;durP2;ratioP2
1204;SDS011;592;48.764;9.174;2023-09-30T00:01:26;3.40;;;1.60;;
1204;SDS011;592;48.764;9.174;2023-09-30T00:03:53;5.30;;;2.13;;
1204;SDS011;592;48.764;9.174;2023-09-30T00:06:20;6.10;;;1.90;;
1204;SDS011;592;48.764;9.174;2023-09-30T00:08:47;5.17;;;2.00;;
1204;SDS011;592;48.764;9.174;2023-09-30T00:11:17;3.53;;;1.70;;
1204;SDS011;592;48.764;9.174;2023-09-30T00:13:47;4.57;;;2.10;;
1204;SDS011;592;48.764;9.174;2023-09-30T00:16:16;5.33;;;2.00;;
1204;SDS011;592;48.764;9.174;2023-09-30T00:18:45;3.73;;;2.07;;
1204;SDS011;592;48.764;9.174;2023-09-30T00:21:13;3.07;;;1.63;;
1204;SDS011;592;48.764;9.174;2023-09-30T00:23:40;5.30;;;1.70;;
1204;SDS011;592;48.764;9.174;2023-09-30T00:26:07;5.20;;;2.20;;
1204;SDS011;592;48.764;9.174;2023-09-30T00:28:34;4.30;;;2.33;;
1204;SDS011;592;48.764;9.174;2023-09-30T00:31:05;4.57;;;2.17;;
1204;SDS011;592;48.764;9.174;2023-09-30T00:33:35;5.90;;;2.10;;
1204;SDS011;592;48.764;9.174;2023-09-30T00:36:05;6.33;;;2.40;;
1204;SDS011;592;48.764;9.174;2023-09-30T00:38:33;5.93;;;1.90;;
1204;SDS011;592;48.764;9.174;2023-09-30T00:41:00;4.70;;;2.13;;
1204;SDS011;592;48.764;9.174;2023-09-30T00:43:28;3.43;;;1.90;;
1204;SDS011;592;48.764;9.174;2023-09-30T00:45:56;5.43;;;2.07;;
1204;SDS011;592;48.764;9.174;2023-09-30T00:48:40;7.53;;;2.67;;
1204;SDS011;592;48.764;9.174;2023-09-30T00:51:07;6.60;;;3.10;;
1204;SDS011;592;48.764;9.174;2023-09-30T00:53:34;5.00;;;1.70;;
1204;SDS011;592;48.764;9.174;2023-09-30T00:56:01;4.83;;;2.23;;
1204;SDS011;592;48.764;9.174;2023-09-30T00:58:29;5.43;;;2.30;;
1204;SDS011;592;48.764;9.174;2023-09-30T01:00:57;7.80;;;1.93;;
1204;SDS011;592;48.764;9.174;2023-09-30T01:03:28;5.60;;;2.40;;
1204;SDS011;592;48.764;9.174;2023-09-30T01:05:55;7.80;;;2.20;;
1204;SDS011;592;48.764;9.174;2023-09-30T01:08:22;4.90;;;2.10;;
1204;SDS011;592;48.764;9.174;2023-09-30T01:10:49;5.50;;;1.90;;
1204;SDS011;592;48.764;9.174;2023-09-30T01:13:17;4.70;;;1.60;;
1204;SDS011;592;48.764;9.174;2023-09-30T01:15:44;3.43;;;1.60;;
1204;SDS011;592;48.764;9.174;2023-09-30T01:18:12;3.30;;;1.30;;
1204;SDS011;592;48.764;9.174;2023-09-30T01:20:40;5.30;;;1.70;;
1204;SDS011;592;48.764;9.174;2023-09-30T01:23:26;3.93;;;1.90;;
1204;SDS011;592;48.764;9.174;2023-09-30T01:25:54;3.00;;;1.33;;
1204;SDS011;592;48.764;9.174;2023-09-30T01:28:21;3.10;;;1.50;;
1204;SDS011;592;48.764;9.174;2023-09-30T01:30:48;3.07;;;1.77;;
1204;SDS011;592;48.764;9.174;2023-09-30T01:33:16;5.30;;;1.63;;
1204;SDS011;592;48.764;9.174;2023-09-30T01:35:44;4.53;;;1.70;;
1204;SDS011;592;48.764;9.174;2023-09-30T01:38:11;3.37;;;1.40;;
1204;SDS011;592;48.764;9.174;2023-09-30T01:40:39;3.20;;;1.40;;
1204;SDS011;592;48.764;9.174;2023-09-30T01:43:07;4.80;;;2.30;;
1204;SDS011;592;48.764;9.174;2023-09-30T01:45:37;3.73;;;1.83;;
1204;SDS011;592;48.764;9.174;2023-09-30T01:48:04;3.70;;;1.53;;
1204;SDS011;592;48.764;9.174;2023-09-30T01:50:31;4.50;;;1.60;;
1204;SDS011;592;48.764;9.174;2023-09-30T01:52:58;4.57;;;1.87;;
1204;SDS011;592;48.764;9.174;2023-09-30T01:55:25;4.03;;;1.70;;
1204;SDS011;592;48.764;9.174;2023-09-30T01:57:56;4.07;;;1.70;;
1204;SDS011;592;48.764;9.174;2023-09-30T02:00:23;4.80;;;2.00;;
1204;SDS011;592;48.764;9.174;2023-09-30T02:02:53;5.07;;;1.87;;
1204;SDS011;592;48.764;9.174;2023-09-30T02:05:23;4.10;;;2.20;;
1204;SDS011;592;48.764;9.174;2023-09-30T02:07:52;3.33;;;1.70;;
1204;SDS011;592;48.764;9.174;2023-09-30T02:10:20;3.13;;;1.50;;
1204;SDS011;592;48.764;9.174;2023-09-30T02:12:50;5.83;;;2.40;;
1204;SDS011;592;48.764;9.174;2023-09-30T02:15:18;3.80;;;2.03;;
1204;SDS011;592;48.764;9.174;2023-09-30T02:17:45;3.33;;;1.50;;
1204;SDS011;592;48.764;9.174;2023-09-30T02:20:15;3.37;;;1.80;;
1204;SDS011;592;48.764;9.174;2023-09-30T02:22:45;3.53;;;1.77;;
1204;SDS011;592;48.764;9.174;2023-09-30T02:25:15;4.00;;;1.70;;
1204;SDS011;592;48.764;9.174;2023-09-30T02:27:44;3.33;;;1.57;;
1204;SDS011;592;48.764;9.174;2023-09-30T02:30:12;3.57;;;1.87;;
1204;SDS011;592;48.764;9.174;2023-09-30T02:32:44;3.90;;;1.73;;
1204;SDS011;592;48.764;9.174;2023-09-30T02:35:13;4.50;;;1.73;;
1204;SDS011;592;48.764;9.174;2023-09-30T02:37:41;4.80;;;2.20;;
1204;SDS011;592;48.764;9.174;2023-09-30T02:40:10;4.30;;;2.00;;
1204;SDS011;592;48.764;9.174;2023-09-30T02:42:42;4.90;;;2.20;;
1204;SDS011;592;48.764;9.174;2023-09-30T02:45:11;3.83;;;2.10;;
1204;SDS011;592;48.764;9.174;2023-09-30T02:47:46;5.40;;;2.20;;
1204;SDS011;592;48.764;9.174;2023-09-30T02:50:18;9.33;;;3.27;;
1204;SDS011;592;48.764;9.174;2023-09-30T02:52:46;5.17;;;2.87;;
1204;SDS011;592;48.764;9.174;2023-09-30T02:55:14;8.47;;;3.60;;
1204;SDS011;592;48.764;9.174;2023-09-30T02:57:45;3.70;;;1.83;;
1204;SDS011;592;48.764;9.174;2023-09-30T03:00:13;3.20;;;1.53;;
1204;SDS011;592;48.764;9.174;2023-09-30T03:02:53;4.50;;;2.10;;
1204;SDS011;592;48.764;9.174;2023-09-30T03:05:21;5.77;;;2.30;;
1204;SDS011;592;48.764;9.174;2023-09-30T03:07:52;4.00;;;1.67;;
1204;SDS011;592;48.764;9.174;2023-09-30T03:10:21;6.13;;;2.20;;
1204;SDS011;592;48.764;9.174;2023-09-30T03:12:48;4.80;;;2.30;;
1204;SDS011;592;48.764;9.174;2023-09-30T03:15:17;4.70;;;2.30;;
1204;SDS011;592;48.764;9.174;2023-09-30T03:17:44;4.30;;;2.00;;
1204;SDS011;592;48.764;9.174;2023-09-30T03:20:12;4.40;;;1.77;;
1204;SDS011;592;48.764;9.174;2023-09-30T03:22:44;4.40;;;2.07;;
1204;SDS011;592;48.764;9.174;2023-09-30T03:25:13;8.87;;;2.10;;
1204;SDS011;592;48.764;9.174;2023-09-30T03:27:42;7.03;;;2.63;;
1204;SDS011;592;48.764;9.174;2023-09-30T03:30:13;4.60;;;2.23;;
1204;SDS011;592;48.764;9.174;2023-09-30T03:32:41;4.07;;;1.87;;
1204;SDS011;592;48.764;9.174;2023-09-30T03:35:09;3.50;;;1.90;;
1204;SDS011;592;48.764;9.174;2023-09-30T03:37:42;6.50;;;2.37;;
1204;SDS011;592;48.764;9.174;2023-09-30T03:40:17;4.77;;;1.90;;
1204;SDS011;592;48.764;9.174;2023-09-30T03:42:56;4.63;;;2.20;;
1204;SDS011;592;48.764;9.174;2023-09-30T03:45:23;4.67;;;1.67;;
1204;SDS011;592;48.764;9.174;2023-09-30T03:47:53;3.10;;;1.33;;
1204;SDS011;592;48.764;9.174;2023-09-30T03:50:22;4.07;;;1.97;;
1204;SDS011;592;48.764;9.174;2023-09-30T03:52:51;4.37;;;1.97;;
1204;SDS011;592;48.764;9.174;2023-09-30T03:55:21;6.73;;;2.03;;
1204;SDS011;592;48.764;9.174;2023-09-30T03:57:50;5.07;;;2.50;;
1204;SDS011;592;48.764;9.174;2023-09-30T04:00:17;5.30;;;2.27;;
1204;SDS011;592;48.764;9.174;2023-09-30T04:02:44;5.07;;;1.73;;
1204;SDS011;592;48.764;9.174;2023-09-30T04:05:14;4.70;;;1.93;;
1204;SDS011;592;48.764;9.174;2023-09-30T04:07:52;5.73;;;2.33;;
1204;SDS011;592;48.764;9.174;2023-09-30T04:10:20;7.00;;;3.03;;
1204;SDS011;592;48.764;9.174;2023-09-30T04:12:50;3.90;;;1.80;;
1204;SDS011;592;48.764;9.174;2023-09-30T04:15:19;5.00;;;1.70;;
1204;SDS011;592;48.764;9.174;2023-09-30T04:17:47;2.97;;;1.33;;
1204;SDS011;592;48.764;9.174;2023-09-30T04:20:16;7.10;;;2.40;;
1204;SDS011;592;48.764;9.174;2023-09-30T04:22:52;3.80;;;1.60;;
1204;SDS011;592;48.764;9.174;2023-09-30T04:25:22;3.50;;;1.83;;
1204;SDS011;592;48.764;9.174;2023-09-30T04:27:51;8.53;;;2.07;;
1204;SDS011;592;48.764;9.174;2023-09-30T04:30:21;5.37;;;2.27;;
1204;SDS011;592;48.764;9.174;2023-09-30T04:32:52;5.17;;;2.23;;
1204;SDS011;592;48.764;9.174;2023-09-30T04:35:19;4.60;;;1.77;;
1204;SDS011;592;48.764;9.174;2023-09-30T04:37:53;3.40;;;1.90;;
1204;SDS011;592;48.764;9.174;2023-09-30T04:40:20;4.27;;;2.20;;
1204;SDS011;592;48.764;9.174;2023-09-30T04:42:47;4.10;;;1.67;;
1204;SDS011;592;48.764;9.174;2023-09-30T04:45:19;5.67;;;2.60;;
1204;SDS011;592;48.764;9.174;2023-09-30T04:47:49;3.80;;;2.27;;
1204;SDS011;592;48.764;9.174;2023-09-30T04:50:17;4.60;;;1.80;;
1204;SDS011;592;48.764;9.174;2023-09-30T04:52:46;4.20;;;1.80;;
1204;SDS011;592;48.764;9.174;2023-09-30T04:55:18;3.77;;;1.80;;
1204;SDS011;592;48.764;9.174;2023-09-30T04:57:44;4.70;;;2.27;;
1204;SDS011;592;48.764;9.174;2023-09-30T05:00:13;4.40;;;2.13;;
1204;SDS011;592;48.764;9.174;2023-09-30T05:02:43;4.27;;;2.20;;
1204;SDS011;592;48.764;9.174;2023-09-30T05:05:11;3.70;;;1.90;;
1204;SDS011;592;48.764;9.174;2023-09-30T05:07:39;4.30;;;2.07;;
1204;SDS011;592;48.764;9.174;2023-09-30T05:10:07;4.60;;;1.90;;
1204;SDS011;592;48.764;9.174;2023-09-30T05:12:38;5.27;;;2.63;;
1204;SDS011;592;48.764;9.174;2023-09-30T05:15:12;5.33;;;2.57;;
1204;SDS011;592;48.764;9.174;2023-09-30T05:17:40;4.57;;;1.80;;
1204;SDS011;592;48.764;9.174;2023-09-30T05:20:11;7.47;;;2.60;;
1204;SDS011;592;48.764;9.174;2023-09-30T05:22:38;4.40;;;2.10;;
1204;SDS011;592;48.764;9.174;2023-09-30T05:25:07;4.57;;;2.20;;
1204;SDS011;592;48.764;9.174;2023-09-30T05:27:38;5.67;;;1.97;;
1204;SDS011;592;48.764;9.174;2023-09-30T05:30:06;3.53;;;1.60;;
1204;SDS011;592;48.764;9.174;2023-09-30T05:32:36;3.67;;;1.83;;
1204;SDS011;592;48.764;9.174;2023-09-30T05:35:05;7.23;;;2.20;;
1204;SDS011;592;48.764;9.174;2023-09-30T05:37:38;3.90;;;2.13;;
1204;SDS011;592;48.764;9.174;2023-09-30T05:40:07;5.60;;;2.10;;
1204;SDS011;592;48.764;9.174;2023-09-30T05:42:46;3.67;;;1.77;;
1204;SDS011;592;48.764;9.174;2023-09-30T05:45:16;3.87;;;2.17;;
1204;SDS011;592;48.764;9.174;2023-09-30T05:47:46;4.03;;;1.77;;
1204;SDS011;592;48.764;9.174;2023-09-30T05:50:17;5.33;;;1.97;;
1204;SDS011;592;48.764;9.174;2023-09-30T05:52:52;5.63;;;2.43;;
1204;SDS011;592;48.764;9.174;2023-09-30T05:55:21;9.07;;;2.37;;
1204;SDS011;592;48.764;9.174;2023-09-30T05:57:51;3.50;;;1.70;;
1204;SDS011;592;48.764;9.174;2023-09-30T06:00:21;2.90;;;1.37;;
1204;SDS011;592;48.764;9.174;2023-09-30T06:02:53;4.23;;;2.20;;
1204;SDS011;592;48.764;9.174;2023-09-30T06:05:23;4.73;;;1.87;;
1204;SDS011;592;48.764;9.174;2023-09-30T06:07:52;3.73;;;2.10;;
1204;SDS011;592;48.764;9.174;2023-09-30T06:10:20;4.50;;;1.70;;
1204;SDS011;592;48.764;9.174;2023-09-30T06:12:52;3.10;;;1.60;;
1204;SDS011;592;48.764;9.174;2023-09-30T06:15:24;6.43;;;2.00;;
1204;SDS011;592;48.764;9.174;2023-09-30T06:17:52;4.40;;;2.07;;
1204;SDS011;592;48.764;9.174;2023-09-30T06:20:19;3.70;;;2.10;;
1204;SDS011;592;48.764;9.174;2023-09-30T06:22:51;4.67;;;2.30;;
1204;SDS011;592;48.764;9.174;2023-09-30T06:25:20;3.90;;;1.70;;
1204;SDS011;592;48.764;9.174;2023-09-30T06:27:52;5.00;;;2.00;;
1204;SDS011;592;48.764;9.174;2023-09-30T06:30:21;4.70;;;2.07;;
1204;SDS011;592;48.764;9.174;2023-09-30T06:32:54;3.77;;;1.93;;
1204;SDS011;592;48.764;9.174;2023-09-30T06:35:22;4.67;;;2.17;;
1204;SDS011;592;48.764;9.174;2023-09-30T06:38:00;5.40;;;2.40;;
1204;SDS011;592;48.764;9.174;2023-09-30T06:40:30;6.63;;;2.50;;
1204;SDS011;592;48.764;9.174;2023-09-30T06:43:09;5.47;;;2.50;;
1204;SDS011;592;48.764;9.174;2023-09-30T06:45:41;6.00;;;2.63;;
1204;SDS011;592;48.764;9.174;2023-09-30T06:48:17;6.33;;;2.20;;
1204;SDS011;592;48.764;9.174;2023-09-30T06:50:46;6.77;;;2.80;;
1204;SDS011;592;48.764;9.174;2023-09-30T06:53:19;5.77;;;2.47;;
1204;SDS011;592;48.764;9.174;2023-09-30T06:55:46;5.23;;;2.50;;
1204;SDS011;592;48.764;9.174;2023-09-30T06:58:20;4.77;;;2.67;;
1204;SDS011;592;48.764;9.174;2023-09-30T07:00:49;5.50;;;3.00;;
1204;SDS011;592;48.764;9.174;2023-09-30T07:03:19;4.13;;;2.53;;
1204;SDS011;592;48.764;9.174;2023-09-30T07:05:51;4.00;;;2.00;;
1204;SDS011;592;48.764;9.174;2023-09-30T07:08:21;7.13;;;3.20;;
1204;SDS011;592;48.764;9.174;2023-09-30T07:10:49;3.90;;;1.87;;
1204;SDS011;592;48.764;9.174;2023-09-30T07:13:19;4.83;;;2.80;;
1204;SDS011;592;48.764;9.174;2023-09-30T07:15:47;3.90;;;2.00;;
1204;SDS011;592;48.764;9.174;2023-09-30T07:18:22;5.47;;;2.87;;
1204;SDS011;592;48.764;9.174;2023-09-30T07:20:55;4.40;;;2.20;;
1204;SDS011;592;48.764;9.174;2023-09-30T07:23:25;6.97;;;3.00;;
1204;SDS011;592;48.764;9.174;2023-09-30T07:25:58;8.83;;;2.70;;
1204;SDS011;592;48.764;9.174;2023-09-30T07:31:20;5.70;;;2.13;;
1204;SDS011;592;48.764;9.174;2023-09-30T07:33:49;4.93;;;2.40;;
1204;SDS011;592;48.764;9.174;2023-09-30T07:36:17;7.80;;;2.27;;
1204;SDS011;592;48.764;9.174;2023-09-30T07:38:51;3.50;;;2.20;;
1204;SDS011;592;48.764;9.174;2023-09-30T07:41:19;5.30;;;2.67;;
1204;SDS011;592;48.764;9.174;2023-09-30T07:43:47;5.20;;;2.33;;
1204;SDS011;592;48.764;9.174;2023-09-30T07:46:16;6.83;;;2.23;;
1204;SDS011;592;48.764;9.174;2023-09-30T07:48:48;3.33;;;1.63;;
1204;SDS011;592;48.764;9.174;2023-09-30T07:51:33;5.43;;;2.30;;
1204;SDS011;592;48.764;9.174;2023-09-30T07:54:07;5.10;;;2.70;;
1204;SDS011;592;48.764;9.174;2023-09-30T07:56:34;4.60;;;2.40;;
1204;SDS011;592;48.764;9.174;2023-09-30T07:59:01;8.03;;;3.10;;
1204;SDS011;592;48.764;9.174;2023-09-30T08:01:30;4.70;;;2.60;;
1204;SDS011;592;48.764;9.174;2023-09-30T08:03:57;9.63;;;2.57;;
1204;SDS011;592;48.764;9.174;2023-09-30T08:06:25;4.90;;;2.50;;
1204;SDS011;592;48.764;9.174;2023-09-30T08:08:52;4.70;;;2.70;;
1204;SDS011;592;48.764;9.174;2023-09-30T08:11:21;6.10;;;3.00;;
1204;SDS011;592;48.764;9.174;2023-09-30T08:13:52;5.40;;;2.80;;
1204;SDS011;592;48.764;9.174;2023-09-30T08:16:19;5.33;;;3.10;;
1204;SDS011;592;48.764;9.174;2023-09-30T08:18:48;8.23;;;3.23;;
1204;SDS011;592;48.764;9.174;2023-09-30T08:21:15;8.40;;;2.73;;
1204;SDS011;592;48.764;9.174;2023-09-30T08:23:42;7.30;;;2.60;;
1204;SDS011;592;48.764;9.174;2023-09-30T08:26:11;6.23;;;3.30;;
1204;SDS011;592;48.764;9.174;2023-09-30T08:28:38;5.63;;;3.17;;
1204;SDS011;592;48.764;9.174;2023-09-30T08:31:11;5.13;;;2.83;;
1204;SDS011;592;48.764;9.174;2023-09-30T08:33:39;8.40;;;4.13;;
1204;SDS011;592;48.764;9.174;2023-09-30T08:36:10;5.20;;;2.90;;
1204;SDS011;592;48.764;9.174;2023-09-30T08:38:38;4.93;;;2.90;;
1204;SDS011;592;48.764;9.174;2023-09-30T08:41:07;6.93;;;3.17;;
1204;SDS011;592;48.764;9.174;2023-09-30T08:43:36;7.70;;;3.80;;
1204;SDS011;592;48.764;9.174;2023-09-30T08:46:05;5.10;;;2.80;;
1204;SDS011;592;48.764;9.174;2023-09-30T08:48:32;5.43;;;2.80;;
1204;SDS011;592;48.764;9.174;2023-09-30T08:51:00;6.03;;;2.90;;
1204;SDS011;592;48.764;9.174;2023-09-30T08:53:29;8.20;;;3.30;;
1204;SDS011;592;48.764;9.174;2023-09-30T08:56:02;7.50;;;3.17;;
1204;SDS011;592;48.764;9.174;2023-09-30T08:58:45;4.70;;;2.70;;
1204;SDS011;592;48.764;9.174;2023-09-30T09:01:20;6.43;;;3.73;;
1204;SDS011;592;48.764;9.174;2023-09-30T09:03:49;6.70;;;2.97;;
1204;SDS011;592;48.764;9.174;2023-09-30T09:06:22;6.53;;;2.67;;
1204;SDS011;592;48.764;9.174;2023-09-30T09:09:00;7.00;;;3.57;;
1204;SDS011;592;48.764;9.174;2023-09-30T09:11:50;6.83;;;3.20;;
1204;SDS011;592;48.764;9.174;2023-09-30T09:14:38;5.80;;;2.70;;
1204;SDS011;592;48.764;9.174;2023-09-30T09:17:08;6.50;;;3.83;;
1204;SDS011;592;48.764;9.174;2023-09-30T09:19:39;5.00;;;2.83;;
1204;SDS011;592;48.764;9.174;2023-09-30T09:22:06;5.30;;;2.97;;
1204;SDS011;592;48.764;9.174;2023-09-30T09:24:41;9.73;;;4.10;;
1204;SDS011;592;48.764;9.174;2023-09-30T09:27:13;10.50;;;2.90;;
1204;SDS011;592;48.764;9.174;2023-09-30T09:30:19;7.80;;;3.20;;
1204;SDS011;592;48.764;9.174;2023-09-30T09:32:59;11.50;;;3.30;;
1204;SDS011;592;48.764;9.174;2023-09-30T09:35:27;6.57;;;3.17;;
1204;SDS011;592;48.764;9.174;2023-09-30T09:38:01;6.10;;;2.43;;
1204;SDS011;592;48.764;9.174;2023-09-30T09:43:42;4.63;;;3.13;;
1204;SDS011;592;48.764;9.174;2023-09-30T09:46:11;5.63;;;3.10;;
1204;SDS011;592;48.764;9.174;2023-09-30T09:48:53;5.67;;;2.87;;
1204;SDS011;592;48.764;9.174;2023-09-30T09:51:26;5.83;;;2.90;;
1204;SDS011;592;48.764;9.174;2023-09-30T09:54:01;4.93;;;2.73;;
1204;SDS011;592;48.764;9.174;2023-09-30T09:56:34;6.90;;;2.97;;
1204;SDS011;592;48.764;9.174;2023-09-30T09:59:04;4.20;;;2.60;;
1204;SDS011;592;48.764;9.174;2023-09-30T10:01:48;8.20;;;2.67;;
1204;SDS011;592;48.764;9.174;2023-09-30T10:04:18;8.87;;;3.00;;
1204;SDS011;592;48.764;9.174;2023-09-30T10:06:54;8.90;;;3.37;;
1204;SDS011;592;48.764;9.174;2023-09-30T10:09:52;6.40;;;3.50;;
1204;SDS011;592;48.764;9.174;2023-09-30T10:12:39;4.73;;;2.27;;
1204;SDS011;592;48.764;9.174;2023-09-30T10:18:12;8.03;;;3.03;;
1204;SDS011;592;48.764;9.174;2023-09-30T10:20:57;6.30;;;2.50;;
1204;SDS011;592;48.764;9.174;2023-09-30T10:24:00;5.83;;;2.70;;
1204;SDS011;592;48.764;9.174;2023-09-30T10:27:40;4.80;;;2.60;;
1204;SDS011;592;48.764;9.174;2023-09-30T10:30:09;8.37;;;2.90;;
1204;SDS011;592;48.764;9.174;2023-09-30T10:35:46;5.77;;;2.37;;
1204;SDS011;592;48.764;9.174;2023-09-30T10:38:44;5.37;;;2.80;;
1204;SDS011;592;48.764;9.174;2023-09-30T10:41:49;7.20;;;2.80;;
1204;SDS011;592;48.764;9.174;2023-09-30T10:45:14;7.77;;;3.73;;
1204;SDS011;592;48.764;9.174;2023-09-30T10:48:53;5.73;;;2.77;;
1204;SDS011;592;48.764;9.174;2023-09-30T10:52:21;7.23;;;3.93;;
1204;SDS011;592;48.764;9.174;2023-09-30T10:55:02;7.87;;;3.10;;
1204;SDS011;592;48.764;9.174;2023-09-30T10:57:43;7.27;;;3.20;;
1204;SDS011;592;48.764;9.174;2023-09-30T11:03:36;7.03;;;3.27;;
1204;SDS011;592;48.764;9.174;2023-09-30T11:06:06;4.83;;;2.57;;
1204;SDS011;592;48.764;9.174;2023-09-30T11:09:07;8.07;;;3.27;;
1204;SDS011;592;48.764;9.174;2023-09-30T11:11:38;6.67;;;2.87;;
1204;SDS011;592;48.764;9.174;2023-09-30T11:14:20;4.87;;;3.10;;
1204;SDS011;592;48.764;9.174;2023-09-30T11:16:49;6.97;;;3.23;;
1204;SDS011;592;48.764;9.174;2023-09-30T11:19:16;8.70;;;3.07;;
1204;SDS011;592;48.764;9.174;2023-09-30T11:21:45;5.40;;;2.57;;
1204;SDS011;592;48.764;9.174;2023-09-30T11:24:15;6.50;;;2.83;;
1204;SDS011;592;48.764;9.174;2023-09-30T11:26:42;5.07;;;2.70;;
1204;SDS011;592;48.764;9.174;2023-09-30T11:29:10;7.20;;;3.07;;
1204;SDS011;592;48.764;9.174;2023-09-30T11:31:38;7.40;;;2.83;;
1204;SDS011;592;48.764;9.174;2023-09-30T11:34:06;7.70;;;3.13;;
1204;SDS011;592;48.764;9.174;2023-09-30T11:36:34;7.33;;;3.70;;
1204;SDS011;592;48.764;9.174;2023-09-30T11:39:01;6.73;;;2.87;;
1204;SDS011;592;48.764;9.174;2023-09-30T11:41:36;5.87;;;3.27;;
1204;SDS011;592;48.764;9.174;2023-09-30T11:44:07;9.77;;;3.50;;
1204;SDS011;592;48.764;9.174;2023-09-30T11:46:48;8.73;;;3.73;;
1204;SDS011;592;48.764;9.174;2023-09-30T11:49:25;5.83;;;2.87;;
1204;SDS011;592;48.764;9.174;2023-09-30T11:51:54;9.47;;;3.07;;
1204;SDS011;592;48.764;9.174;2023-09-30T11:54:21;9.10;;;3.63;;
1204;SDS011;592;48.764;9.174;2023-09-30T11:56:49;11.33;;;3.80;;
1204;SDS011;592;48.764;9.174;2023-09-30T11:59:16;6.10;;;3.30;;
1204;SDS011;592;48.764;9.174;2023-09-30T12:01:48;6.73;;;3.33;;
1204;SDS011;592;48.764;9.174;2023-09-30T12:04:16;7.00;;;2.80;;
1204;SDS011;592;48.764;9.174;2023-09-30T12:06:44;5.67;;;2.90;;
1204;SDS011;592;48.764;9.174;2023-09-30T12:09:13;7.33;;;3.17;;
1204;SDS011;592;48.764;9.174;2023-09-30T12:11:40;6.20;;;2.80;;
1204;SDS011;592;48.764;9.174;2023-09-30T12:14:10;6.73;;;2.87;;
1204;SDS011;592;48.764;9.174;2023-09-30T12:16:37;7.10;;;3.50;;
1204;SDS011;592;48.764;9.174;2023-09-30T12:19:04;7.60;;;3.40;;
1204;SDS011;592;48.764;9.174;2023-09-30T12:21:32;6.20;;;3.13;;
1204;SDS011;592;48.764;9.174;2023-09-30T12:23:59;7.47;;;3.80;;
1204;SDS011;592;48.764;9.174;2023-09-30T12:26:26;4.90;;;2.30;;
1204;SDS011;592;48.764;9.174;2023-09-30T12:28:53;6.17;;;2.73;;
1204;SDS011;592;48.764;9.174;2023-09-30T12:31:21;6.17;;;2.90;;
1204;SDS011;592;48.764;9.174;2023-09-30T12:33:48;7.80;;;2.93;;
1204;SDS011;592;48.764;9.174;2023-09-30T12:36:16;5.80;;;3.10;;
1204;SDS011;592;48.764;9.174;2023-09-30T12:38:43;7.20;;;3.13;;
1204;SDS011;592;48.764;9.174;2023-09-30T12:41:09;6.30;;;2.90;;
1204;SDS011;592;48.764;9.174;2023-09-30T12:43:36;7.43;;;3.30;;
1204;SDS011;592;48.764;9.174;2023-09-30T12:46:03;6.80;;;2.77;;
1204;SDS011;592;48.764;9.174;2023-09-30T12:48:32;7.30;;;3.03;;
1204;SDS011;592;48.764;9.174;2023-09-30T12:50:59;5.23;;;2.90;;
1204;SDS011;592;48.764;9.174;2023-09-30T12:53:25;5.57;;;3.20;;
1204;SDS011;592;48.764;9.174;2023-09-30T12:55:52;7.00;;;3.53;;
1204;SDS011;592;48.764;9.174;2023-09-30T12:58:19;7.53;;;3.90;;
1204;SDS011;592;48.764;9.174;2023-09-30T13:00:45;6.20;;;3.43;;
1204;SDS011;592;48.764;9.174;2023-09-30T13:03:12;8.03;;;2.73;;
1204;SDS011;592;48.764;9.174;2023-09-30T13:05:41;6.20;;;3.50;;
1204;SDS011;592;48.764;9.174;2023-09-30T13:08:08;6.50;;;3.23;;
1204;SDS011;592;48.764;9.174;2023-09-30T13:10:36;7.00;;;3.33;;
1204;SDS011;592;48.764;9.174;2023-09-30T13:13:04;10.97;;;3.57;;
1204;SDS011;592;48.764;9.174;2023-09-30T13:15:31;10.73;;;4.13;;
1204;SDS011;592;48.764;9.174;2023-09-30T13:17:59;7.20;;;3.80;;
1204;SDS011;592;48.764;9.174;2023-09-30T13:20:28;7.20;;;2.63;;
1204;SDS011;592;48.764;9.174;2023-09-30T13:22:56;7.27;;;3.00;;
1204;SDS011;592;48.764;9.174;2023-09-30T13:25:23;6.83;;;2.77;;
1204;SDS011;592;48.764;9.174;2023-09-30T13:27:51;6.20;;;3.43;;
1204;SDS011;592;48.764;9.174;2023-09-30T13:30:18;7.57;;;2.87;;
1204;SDS011;592;48.764;9.174;2023-09-30T13:32:46;7.90;;;3.07;;
1204;SDS011;592;48.764;9.174;2023-09-30T13:35:12;6.53;;;2.90;;
1204;SDS011;592;48.764;9.174;2023-09-30T13:37:39;6.97;;;3.13;;
1204;SDS011;592;48.764;9.174;2023-09-30T13:40:08;6.93;;;3.23;;
1204;SDS011;592;48.764;9.174;2023-09-30T13:42:38;5.77;;;2.97;;
1204;SDS011;592;48.764;9.174;2023-09-30T13:45:05;5.83;;;2.47;;
1204;SDS011;592;48.764;9.174;2023-09-30T13:47:33;7.20;;;3.37;;
1204;SDS011;592;48.764;9.174;2023-09-30T13:50:00;9.53;;;3.47;;
1204;SDS011;592;48.764;9.174;2023-09-30T13:52:28;10.77;;;3.63;;
1204;SDS011;592;48.764;9.174;2023-09-30T13:54:55;7.73;;;3.50;;
1204;SDS011;592;48.764;9.174;2023-09-30T13:57:23;6.00;;;2.90;;
1204;SDS011;592;48.764;9.174;2023-09-30T13:59:50;6.40;;;3.33;;
1204;SDS011;592;48.764;9.174;2023-09-30T14:02:17;7.10;;;3.43;;
1204;SDS011;592;48.764;9.174;2023-09-30T14:04:44;6.73;;;3.40;;
1204;SDS011;592;48.764;9.174;2023-09-30T14:07:11;11.60;;;4.37;;
1204;SDS011;592;48.764;9.174;2023-09-30T14:09:38;7.03;;;3.63;;
1204;SDS011;592;48.764;9.174;2023-09-30T14:12:05;10.43;;;3.53;;
1204;SDS011;592;48.764;9.174;2023-09-30T14:14:34;5.27;;;3.00;;
1204;SDS011;592;48.764;9.174;2023-09-30T14:17:00;11.43;;;4.10;;
1204;SDS011;592;48.764;9.174;2023-09-30T14:19:32;6.43;;;2.70;;
1204;SDS011;592;48.764;9.174;2023-09-30T14:21:59;6.27;;;3.53;;
1204;SDS011;592;48.764;9.174;2023-09-30T14:24:29;6.13;;;2.63;;
1204;SDS011;592;48.764;9.174;2023-09-30T14:26:55;9.87;;;3.00;;
1204;SDS011;592;48.764;9.174;2023-09-30T14:29:22;8.80;;;3.27;;
1204;SDS011;592;48.764;9.174;2023-09-30T14:31:51;6.90;;;2.93;;
1204;SDS011;592;48.764;9.174;2023-09-30T14:34:17;6.50;;;2.93;;
1204;SDS011;592;48.764;9.174;2023-09-30T14:36:45;6.27;;;2.93;;
1204;SDS011;592;48.764;9.174;2023-09-30T14:39:13;8.00;;;3.53;;
1204;SDS011;592;48.764;9.174;2023-09-30T14:41:41;10.50;;;3.90;;
1204;SDS011;592;48.764;9.174;2023-09-30T14:44:07;9.20;;;3.50;;
1204;SDS011;592;48.764;9.174;2023-09-30T14:46:38;8.30;;;3.10;;
1204;SDS011;592;48.764;9.174;2023-09-30T14:49:06;7.97;;;3.37;;
1204;SDS011;592;48.764;9.174;2023-09-30T14:51:33;6.30;;;3.40;;
1204;SDS011;592;48.764;9.174;2023-09-30T14:54:00;7.73;;;3.13;;
1204;SDS011;592;48.764;9.174;2023-09-30T14:56:27;5.27;;;2.57;;
1204;SDS011;592;48.764;9.174;2023-09-30T14:58:54;7.57;;;3.90;;
1204;SDS011;592;48.764;9.174;2023-09-30T15:01:21;6.23;;;3.20;;
1204;SDS011;592;48.764;9.174;2023-09-30T15:03:48;8.23;;;3.37;;
1204;SDS011;592;48.764;9.174;2023-09-30T15:06:20;8.10;;;4.23;;
1204;SDS011;592;48.764;9.174;2023-09-30T15:08:49;6.50;;;3.10;;
1204;SDS011;592;48.764;9.174;2023-09-30T15:11:16;10.33;;;3.63;;
1204;SDS011;592;48.764;9.174;2023-09-30T15:13:43;8.10;;;3.60;;
1204;SDS011;592;48.764;9.174;2023-09-30T15:16:14;7.20;;;3.53;;
1204;SDS011;592;48.764;9.174;2023-09-30T15:18:42;6.63;;;3.30;;
1204;SDS011;592;48.764;9.174;2023-09-30T15:21:09;6.33;;;2.80;;
1204;SDS011;592;48.764;9.174;2023-09-30T15:23:37;6.73;;;3.50;;
1204;SDS011;592;48.764;9.174;2023-09-30T15:26:04;7.03;;;2.60;;
1204;SDS011;592;48.764;9.174;2023-09-30T15:28:31;6.40;;;3.20;;
1204;SDS011;592;48.764;9.174;2023-09-30T15:30:58;10.67;;;3.30;;
1204;SDS011;592;48.764;9.174;2023-09-30T15:33:26;7.63;;;2.60;;
1204;SDS011;592;48.764;9.174;2023-09-30T15:35:53;6.70;;;3.37;;
1204;SDS011;592;48.764;9.174;2023-09-30T15:38:20;6.77;;;2.90;;
1204;SDS011;592;48.764;9.174;2023-09-30T15:40:52;7.77;;;3.70;;
1204;SDS011;592;48.764;9.174;2023-09-30T15:43:22;5.60;;;2.73;;
1204;SDS011;592;48.764;9.174;2023-09-30T15:45:50;7.80;;;3.07;;
1204;SDS011;592;48.764;9.174;2023-09-30T15:48:17;7.90;;;2.90;;
1204;SDS011;592;48.764;9.174;2023-09-30T15:50:45;8.50;;;3.17;;
1204;SDS011;592;48.764;9.174;2023-09-30T15:53:12;12.13;;;3.47;;
1204;SDS011;592;48.764;9.174;2023-09-30T15:55:39;6.00;;;3.30;;
1204;SDS011;592;48.764;9.174;2023-09-30T15:58:07;5.60;;;2.60;;
1204;SDS011;592;48.764;9.174;2023-09-30T16:00:35;6.00;;;3.07;;
1204;SDS011;592;48.764;9.174;2023-09-30T16:03:03;7.07;;;2.83;;
1204;SDS011;592;48.764;9.174;2023-09-30T16:05:31;6.33;;;3.27;;
1204;SDS011;592;48.764;9.174;2023-09-30T16:07:59;9.83;;;2.87;;